sensor_id;sensor_type;location;lat;lon;timestamp;pressure;altitude;pressure_sealevel;temperature;humidity
39223;BME280;24936;46.328;11.026;2023-03-13T00:01:58;94443.59;;;1.82;80.36
39223;BME280;24936;46.328;11.026;2023-03-13T00:04:24;94454.56;;;2.18;77.94
39223;BME280;24936;46.328;11.026;2023-03-13T00:06:49;94453.19;;;1.66;79.16
39223;BME280;24936;46.328;11.026;2023-03-13T00:09:15;94461.19;;;1.31;80.88
39223;BME280;24936;46.328;11.026;2023-03-13T00:11:42;94449.69;;;1.35;81.41
39223;BME280;24936;46.328;11.026;2023-03-13T00:14:08;94451.59;;;1.63;81.05
39223;BME280;24936;46.328;11.026;2023-03-13T00:16:34;94465.31;;;1.49;81.12
39223;BME280;24936;46.328;11.026;2023-03-13T00:19:02;94464.16;;;1.39;81.22
39223;BME280;24936;46.328;11.026;2023-03-13T00:21:29;94458.03;;;1.72;80.34
39223;BME280;24936;46.328;11.026;2023-03-13T00:23:56;94452.16;;;1.68;80.33
39223;BME280;24936;46.328;11.026;2023-03-13T00:26:24;94460.47;;;1.59;80.76
39223;BME280;24936;46.328;11.026;2023-03-13T00:28:50;94462.63;;;1.67;80.38
39223;BME280;24936;46.328;11.026;2023-03-13T00:31:27;94465.59;;;1.45;80.67
39223;BME280;24936;46.328;11.026;2023-03-13T00:33:56;94470.38;;;1.36;81.68
39223;BME280;24936;46.328;11.026;2023-03-13T00:36:25;94466.34;;;1.47;81.33
39223;BME280;24936;46.328;11.026;2023-03-13T00:38:51;94462.34;;;1.41;81.32
39223;BME280;24936;46.328;11.026;2023-03-13T00:41:20;94459.41;;;1.15;81.71
39223;BME280;24936;46.328;11.026;2023-03-13T00:43:47;94455.13;;;1.46;81.71
39223;BME280;24936;46.328;11.026;2023-03-13T00:46:13;94453.91;;;1.84;80.15
39223;BME280;24936;46.328;11.026;2023-03-13T00:48:39;94453.13;;;1.51;80.49
39223;BME280;24936;46.328;11.026;2023-03-13T00:51:05;94450.81;;;1.31;81.41
39223;BME280;24936;46.328;11.026;2023-03-13T00:53:30;94446.59;;;1.60;80.79
39223;BME280;24936;46.328;11.026;2023-03-13T00:55:58;94432.38;;;1.51;80.59
39223;BME280;24936;46.328;11.026;2023-03-13T00:58:27;94443.34;;;1.09;81.97
39223;BME280;24936;46.328;11.026;2023-03-13T01:00:53;94443.91;;;1.14;82.15
39223;BME280;24936;46.328;11.026;2023-03-13T01:03:20;94432.97;;;1.25;81.39
39223;BME280;24936;46.328;11.026;2023-03-13T01:05:56;94439.75;;;1.11;82.06
39223;BME280;24936;46.328;11.026;2023-03-13T01:08:22;94438.41;;;1.04;82.35
39223;BME280;24936;46.328;11.026;2023-03-13T01:10:47;94428.13;;;1.18;81.99
39223;BME280;24936;46.328;11.026;2023-03-13T01:13:13;94425.53;;;1.18;82.27
39223;BME280;24936;46.328;11.026;2023-03-13T01:15:38;94424.34;;;0.92;82.52
39223;BME280;24936;46.328;11.026;2023-03-13T01:18:03;94420.00;;;1.25;81.94
39223;BME280;24936;46.328;11.026;2023-03-13T01:20:29;94416.63;;;1.55;81.20
39223;BME280;24936;46.328;11.026;2023-03-13T01:22:55;94415.34;;;1.15;81.80
39223;BME280;24936;46.328;11.026;2023-03-13T01:25:20;94419.94;;;0.94;82.33
39223;BME280;24936;46.328;11.026;2023-03-13T01:27:46;94423.28;;;0.96;82.86
39223;BME280;24936;46.328;11.026;2023-03-13T01:30:11;94421.03;;;1.22;82.00
39223;BME280;24936;46.328;11.026;2023-03-13T01:32:37;94404.78;;;1.02;82.58
39223;BME280;24936;46.328;11.026;2023-03-13T01:35:02;94403.13;;;0.69;82.65
39223;BME280;24936;46.328;11.026;2023-03-13T01:37:28;94401.41;;;0.52;83.76
39223;BME280;24936;46.328;11.026;2023-03-13T01:39:53;94403.63;;;0.76;83.52
39223;BME280;24936;46.328;11.026;2023-03-13T01:42:18;94405.09;;;0.80;83.71
39223;BME280;24936;46.328;11.026;2023-03-13T01:44:52;94403.28;;;0.82;83.85
39223;BME280;24936;46.328;11.026;2023-03-13T01:47:18;94398.94;;;0.99;82.73
39223;BME280;24936;46.328;11.026;2023-03-13T01:49:44;94391.75;;;0.72;83.19
39223;BME280;24936;46.328;11.026;2023-03-13T01:52:16;94395.06;;;0.58;83.94
39223;BME280;24936;46.328;11.026;2023-03-13T01:54:48;94389.53;;;0.48;84.32
39223;BME280;24936;46.328;11.026;2023-03-13T01:57:26;94391.34;;;0.80;84.16
39223;BME280;24936;46.328;11.026;2023-03-13T02:00:08;94394.69;;;0.82;83.67
39223;BME280;24936;46.328;11.026;2023-03-13T02:02:37;94394.69;;;0.98;83.77
39223;BME280;24936;46.328;11.026;2023-03-13T02:05:05;94397.94;;;1.17;82.38
39223;BME280;24936;46.328;11.026;2023-03-13T02:07:56;94399.78;;;1.15;82.24
39223;BME280;24936;46.328;11.026;2023-03-13T02:10:20;94396.59;;;1.10;82.60
39223;BME280;24936;46.328;11.026;2023-03-13T02:12:47;94393.59;;;1.02;83.71
39223;BME280;24936;46.328;11.026;2023-03-13T02:15:16;94407.13;;;0.91;83.75
39223;BME280;24936;46.328;11.026;2023-03-13T02:17:43;94415.16;;;0.86;83.86
39223;BME280;24936;46.328;11.026;2023-03-13T02:20:10;94405.81;;;1.00;83.51
39223;BME280;24936;46.328;11.026;2023-03-13T02:28:13;94399.84;;;0.98;82.99
39223;BME280;24936;46.328;11.026;2023-03-13T02:30:42;94399.28;;;1.09;82.29
39223;BME280;24936;46.328;11.026;2023-03-13T02:33:09;94393.56;;;0.86;82.93
39223;BME280;24936;46.328;11.026;2023-03-13T02:35:35;94396.56;;;0.78;82.83
39223;BME280;24936;46.328;11.026;2023-03-13T02:38:04;94393.06;;;0.79;82.85
39223;BME280;24936;46.328;11.026;2023-03-13T02:40:37;94401.19;;;0.73;83.36
39223;BME280;24936;46.328;11.026;2023-03-13T02:43:10;94401.94;;;0.75;83.47
39223;BME280;24936;46.328;11.026;2023-03-13T02:45:36;94396.09;;;0.87;83.19
39223;BME280;24936;46.328;11.026;2023-03-13T02:48:02;94393.41;;;0.89;82.65
39223;BME280;24936;46.328;11.026;2023-03-13T02:50:27;94391.69;;;0.89;82.49
39223;BME280;24936;46.328;11.026;2023-03-13T02:53:02;94392.66;;;0.87;82.58
39223;BME280;24936;46.328;11.026;2023-03-13T02:55:40;94390.16;;;0.85;82.14
39223;BME280;24936;46.328;11.026;2023-03-13T02:58:06;94397.59;;;0.91;82.44
39223;BME280;24936;46.328;11.026;2023-03-13T03:00:32;94389.09;;;0.89;82.63
39223;BME280;24936;46.328;11.026;2023-03-13T03:02:57;94388.41;;;1.02;82.45
39223;BME280;24936;46.328;11.026;2023-03-13T03:05:23;94393.09;;;1.11;81.84
39223;BME280;24936;46.328;11.026;2023-03-13T03:07:49;94394.50;;;1.17;81.21
39223;BME280;24936;46.328;11.026;2023-03-13T03:10:15;94396.59;;;1.10;81.52
39223;BME280;24936;46.328;11.026;2023-03-13T03:12:41;94407.47;;;1.17;82.09
39223;BME280;24936;46.328;11.026;2023-03-13T03:15:07;94406.63;;;1.16;81.82
39223;BME280;24936;46.328;11.026;2023-03-13T03:17:33;94410.13;;;1.31;81.84
39223;BME280;24936;46.328;11.026;2023-03-13T03:19:59;94407.94;;;1.56;81.29
39223;BME280;24936;46.328;11.026;2023-03-13T03:22:24;94401.19;;;1.67;80.22
39223;BME280;24936;46.328;11.026;2023-03-13T03:24:49;94411.78;;;1.48;80.99
39223;BME280;24936;46.328;11.026;2023-03-13T03:27:15;94415.00;;;1.37;81.55
39223;BME280;24936;46.328;11.026;2023-03-13T03:29:40;94408.03;;;1.38;82.32
39223;BME280;24936;46.328;11.026;2023-03-13T03:32:06;94396.97;;;1.50;81.10
39223;BME280;24936;46.328;11.026;2023-03-13T03:34:31;94396.03;;;1.51;81.13
39223;BME280;24936;46.328;11.026;2023-03-13T03:36:56;94396.75;;;1.39;80.86
39223;BME280;24936;46.328;11.026;2023-03-13T03:39:22;94399.91;;;1.28;81.32
39223;BME280;24936;46.328;11.026;2023-03-13T03:41:47;94393.16;;;1.26;81.65
39223;BME280;24936;46.328;11.026;2023-03-13T03:44:13;94393.00;;;1.29;81.86
39223;BME280;24936;46.328;11.026;2023-03-13T03:46:38;94389.13;;;1.36;81.47
39223;BME280;24936;46.328;11.026;2023-03-13T03:52:25;94401.16;;;1.53;80.74
39223;BME280;24936;46.328;11.026;2023-03-13T03:54:51;94392.31;;;1.41;81.18
39223;BME280;24936;46.328;11.026;2023-03-13T03:57:16;94401.91;;;1.39;81.76
39223;BME280;24936;46.328;11.026;2023-03-13T03:59:41;94393.66;;;1.32;82.27
39223;BME280;24936;46.328;11.026;2023-03-13T04:02:07;94388.38;;;1.34;83.00
39223;BME280;24936;46.328;11.026;2023-03-13T04:04:32;94391.38;;;1.42;82.53
39223;BME280;24936;46.328;11.026;2023-03-13T04:06:57;94385.34;;;1.42;82.51
39223;BME280;24936;46.328;11.026;2023-03-13T04:09:23;94392.31;;;1.41;82.85
39223;BME280;24936;46.328;11.026;2023-03-13T04:11:48;94395.22;;;1.51;82.24
39223;BME280;24936;46.328;11.026;2023-03-13T04:14:13;94384.03;;;1.34;81.82
39223;BME280;24936;46.328;11.026;2023-03-13T04:16:39;94398.56;;;1.37;81.74
39223;BME280;24936;46.328;11.026;2023-03-13T04:19:04;94393.91;;;1.12;82.79
39223;BME280;24936;46.328;11.026;2023-03-13T04:21:30;94393.75;;;1.15;83.18
39223;BME280;24936;46.328;11.026;2023-03-13T04:23:55;94383.47;;;1.13;83.36
39223;BME280;24936;46.328;11.026;2023-03-13T04:26:20;94391.75;;;1.04;83.73
39223;BME280;24936;46.328;11.026;2023-03-13T04:28:46;94400.09;;;1.09;83.69
39223;BME280;24936;46.328;11.026;2023-03-13T04:31:11;94391.09;;;1.16;83.39
39223;BME280;24936;46.328;11.026;2023-03-13T04:33:36;94392.91;;;1.14;82.86
39223;BME280;24936;46.328;11.026;2023-03-13T04:36:02;94393.75;;;1.15;83.46
39223;BME280;24936;46.328;11.026;2023-03-13T04:38:28;94395.75;;;1.26;82.38
39223;BME280;24936;46.328;11.026;2023-03-13T04:40:53;94389.56;;;1.12;83.15
39223;BME280;24936;46.328;11.026;2023-03-13T04:43:19;94398.94;;;1.15;83.43
39223;BME280;24936;46.328;11.026;2023-03-13T04:45:44;94392.00;;;1.15;83.78
39223;BME280;24936;46.328;11.026;2023-03-13T04:48:11;94397.06;;;1.33;82.55
39223;BME280;24936;46.328;11.026;2023-03-13T04:50:36;94394.06;;;1.25;83.22
39223;BME280;24936;46.328;11.026;2023-03-13T04:53:02;94384.56;;;1.56;81.35
39223;BME280;24936;46.328;11.026;2023-03-13T04:55:27;94401.22;;;1.51;81.33
39223;BME280;24936;46.328;11.026;2023-03-13T04:57:53;94408.44;;;1.46;81.58
39223;BME280;24936;46.328;11.026;2023-03-13T05:00:18;94414.63;;;1.44;82.02
39223;BME280;24936;46.328;11.026;2023-03-13T05:02:44;94423.09;;;1.31;82.65
39223;BME280;24936;46.328;11.026;2023-03-13T05:05:09;94438.91;;;1.27;82.88
39223;BME280;24936;46.328;11.026;2023-03-13T05:07:34;94425.19;;;1.25;83.71
39223;BME280;24936;46.328;11.026;2023-03-13T05:10:00;94426.09;;;1.40;83.34
39223;BME280;24936;46.328;11.026;2023-03-13T05:12:25;94424.94;;;1.45;83.83
39223;BME280;24936;46.328;11.026;2023-03-13T05:14:50;94433.88;;;1.56;83.10
39223;BME280;24936;46.328;11.026;2023-03-13T05:17:17;94421.78;;;1.71;83.07
39223;BME280;24936;46.328;11.026;2023-03-13T05:19:43;94413.50;;;1.64;82.59
39223;BME280;24936;46.328;11.026;2023-03-13T05:22:08;94420.19;;;1.68;82.11
39223;BME280;24936;46.328;11.026;2023-03-13T05:24:34;94433.72;;;1.59;82.05
39223;BME280;24936;46.328;11.026;2023-03-13T05:26:59;94425.34;;;1.53;82.23
39223;BME280;24936;46.328;11.026;2023-03-13T05:29:24;94427.34;;;1.48;82.96
39223;BME280;24936;46.328;11.026;2023-03-13T05:31:50;94437.06;;;1.45;83.21
39223;BME280;24936;46.328;11.026;2023-03-13T05:34:16;94432.94;;;1.41;83.03
39223;BME280;24936;46.328;11.026;2023-03-13T05:36:41;94431.72;;;1.48;82.93
39223;BME280;24936;46.328;11.026;2023-03-13T05:39:07;94420.66;;;1.44;83.00
39223;BME280;24936;46.328;11.026;2023-03-13T05:41:32;94422.50;;;1.42;82.98
39223;BME280;24936;46.328;11.026;2023-03-13T05:43:57;94426.50;;;1.48;82.80
39223;BME280;24936;46.328;11.026;2023-03-13T05:46:23;94429.53;;;1.40;82.51
39223;BME280;24936;46.328;11.026;2023-03-13T05:48:48;94422.34;;;1.45;82.12
39223;BME280;24936;46.328;11.026;2023-03-13T05:51:14;94423.00;;;1.49;82.19
39223;BME280;24936;46.328;11.026;2023-03-13T05:53:39;94431.78;;;1.62;82.48
39223;BME280;24936;46.328;11.026;2023-03-13T05:56:05;94420.09;;;1.70;82.17
39223;BME280;24936;46.328;11.026;2023-03-13T05:58:30;94422.84;;;1.82;81.86
39223;BME280;24936;46.328;11.026;2023-03-13T06:00:55;94426.94;;;1.87;82.79
39223;BME280;24936;46.328;11.026;2023-03-13T06:03:21;94428.25;;;1.94;81.77
39223;BME280;24936;46.328;11.026;2023-03-13T06:05:46;94424.03;;;2.07;81.71
39223;BME280;24936;46.328;11.026;2023-03-13T06:08:11;94430.44;;;2.16;81.37
39223;BME280;24936;46.328;11.026;2023-03-13T06:10:37;94419.50;;;2.25;80.42
39223;BME280;24936;46.328;11.026;2023-03-13T06:13:02;94426.19;;;2.29;80.87
39223;BME280;24936;46.328;11.026;2023-03-13T06:15:28;94424.38;;;2.46;80.64
39223;BME280;24936;46.328;11.026;2023-03-13T06:17:53;94444.13;;;2.63;79.77
39223;BME280;24936;46.328;11.026;2023-03-13T06:20:18;94440.59;;;2.64;79.00
39223;BME280;24936;46.328;11.026;2023-03-13T06:22:44;94438.75;;;2.66;78.39
39223;BME280;24936;46.328;11.026;2023-03-13T06:25:09;94438.66;;;2.68;78.87
39223;BME280;24936;46.328;11.026;2023-03-13T06:27:35;94438.00;;;2.79;78.65
39223;BME280;24936;46.328;11.026;2023-03-13T06:30:00;94450.25;;;2.91;78.30
39223;BME280;24936;46.328;11.026;2023-03-13T06:32:27;94451.75;;;2.81;78.42
39223;BME280;24936;46.328;11.026;2023-03-13T06:34:52;94444.41;;;2.87;78.37
39223;BME280;24936;46.328;11.026;2023-03-13T06:37:17;94443.56;;;2.87;77.69
39223;BME280;24936;46.328;11.026;2023-03-13T06:39:43;94440.94;;;3.01;77.99
39223;BME280;24936;46.328;11.026;2023-03-13T06:42:08;94435.19;;;3.25;77.27
39223;BME280;24936;46.328;11.026;2023-03-13T06:44:33;94441.56;;;3.34;76.93
39223;BME280;24936;46.328;11.026;2023-03-13T06:46:59;94436.97;;;3.52;76.53
39223;BME280;24936;46.328;11.026;2023-03-13T06:49:24;94436.31;;;3.76;75.45
39223;BME280;24936;46.328;11.026;2023-03-13T06:51:50;94435.53;;;3.88;75.00
39223;BME280;24936;46.328;11.026;2023-03-13T06:54:15;94435.94;;;3.82;74.45
39223;BME280;24936;46.328;11.026;2023-03-13T06:56:40;94426.97;;;3.86;74.79
39223;BME280;24936;46.328;11.026;2023-03-13T06:59:06;94432.41;;;3.96;74.57
39223;BME280;24936;46.328;11.026;2023-03-13T07:01:31;94421.63;;;4.15;74.22
39223;BME280;24936;46.328;11.026;2023-03-13T07:03:57;94424.56;;;4.36;73.03
39223;BME280;24936;46.328;11.026;2023-03-13T07:06:22;94419.56;;;4.46;72.85
39223;BME280;24936;46.328;11.026;2023-03-13T07:08:47;94421.44;;;4.57;72.74
39223;BME280;24936;46.328;11.026;2023-03-13T07:11:14;94426.84;;;4.67;72.64
39223;BME280;24936;46.328;11.026;2023-03-13T07:13:40;94425.59;;;4.85;71.88
39223;BME280;24936;46.328;11.026;2023-03-13T07:16:07;94430.59;;;5.01;72.12
39223;BME280;24936;46.328;11.026;2023-03-13T07:18:34;94427.75;;;5.04;71.32
39223;BME280;24936;46.328;11.026;2023-03-13T07:21:01;94445.41;;;5.01;70.85
39223;BME280;24936;46.328;11.026;2023-03-13T07:23:29;94436.22;;;4.95;71.55
39223;BME280;24936;46.328;11.026;2023-03-13T07:25:57;94430.00;;;4.85;71.61
39223;BME280;24936;46.328;11.026;2023-03-13T07:28:24;94439.03;;;4.92;72.09
39223;BME280;24936;46.328;11.026;2023-03-13T07:30:50;94450.34;;;4.93;70.97
39223;BME280;24936;46.328;11.026;2023-03-13T07:33:16;94444.19;;;4.81;72.15
39223;BME280;24936;46.328;11.026;2023-03-13T07:35:49;94444.28;;;4.66;72.23
39223;BME280;24936;46.328;11.026;2023-03-13T07:38:15;94443.34;;;4.80;72.37
39223;BME280;24936;46.328;11.026;2023-03-13T07:40:49;94440.41;;;4.98;71.78
39223;BME280;24936;46.328;11.026;2023-03-13T07:43:15;94441.94;;;5.26;70.94
39223;BME280;24936;46.328;11.026;2023-03-13T07:45:51;94433.56;;;5.58;70.32
39223;BME280;24936;46.328;11.026;2023-03-13T07:48:17;94437.81;;;5.72;69.42
39223;BME280;24936;46.328;11.026;2023-03-13T07:50:42;94444.53;;;5.88;68.53
39223;BME280;24936;46.328;11.026;2023-03-13T07:53:07;94442.97;;;6.09;68.15
39223;BME280;24936;46.328;11.026;2023-03-13T07:55:33;94435.59;;;6.03;66.78
39223;BME280;24936;46.328;11.026;2023-03-13T07:57:58;94438.41;;;6.24;67.54
39223;BME280;24936;46.328;11.026;2023-03-13T08:00:23;94431.38;;;6.25;67.45
39223;BME280;24936;46.328;11.026;2023-03-13T08:02:49;94431.91;;;6.41;66.98
39223;BME280;24936;46.328;11.026;2023-03-13T08:05:14;94438.97;;;6.75;66.23
39223;BME280;24936;46.328;11.026;2023-03-13T08:07:40;94437.31;;;6.74;65.22
39223;BME280;24936;46.328;11.026;2023-03-13T08:10:07;94431.13;;;6.86;64.58
39223;BME280;24936;46.328;11.026;2023-03-13T08:12:33;94438.16;;;6.75;65.00
39223;BME280;24936;46.328;11.026;2023-03-13T08:15:02;94442.81;;;6.82;65.88
39223;BME280;24936;46.328;11.026;2023-03-13T08:17:33;94425.31;;;6.94;64.98
39223;BME280;24936;46.328;11.026;2023-03-13T08:19:59;94426.50;;;6.90;65.43
39223;BME280;24936;46.328;11.026;2023-03-13T08:22:24;94424.59;;;6.69;66.30
39223;BME280;24936;46.328;11.026;2023-03-13T08:24:49;94412.69;;;6.65;66.86
39223;BME280;24936;46.328;11.026;2023-03-13T08:27:15;94418.84;;;6.53;66.91
39223;BME280;24936;46.328;11.026;2023-03-13T08:29:40;94416.16;;;6.54;66.95
39223;BME280;24936;46.328;11.026;2023-03-13T08:32:05;94422.44;;;6.63;65.87
39223;BME280;24936;46.328;11.026;2023-03-13T08:34:31;94416.28;;;7.10;65.28
39223;BME280;24936;46.328;11.026;2023-03-13T08:36:59;94402.56;;;7.40;64.24
39223;BME280;24936;46.328;11.026;2023-03-13T08:39:24;94402.91;;;7.58;62.85
39223;BME280;24936;46.328;11.026;2023-03-13T08:41:50;94408.34;;;7.67;63.15
39223;BME280;24936;46.328;11.026;2023-03-13T08:44:17;94407.25;;;7.69;63.36
39223;BME280;24936;46.328;11.026;2023-03-13T08:46:44;94405.63;;;7.89;62.01
39223;BME280;24936;46.328;11.026;2023-03-13T08:49:10;94409.03;;;7.69;62.44
39223;BME280;24936;46.328;11.026;2023-03-13T08:51:36;94398.16;;;7.41;62.41
39223;BME280;24936;46.328;11.026;2023-03-13T08:54:02;94404.81;;;7.45;63.37
39223;BME280;24936;46.328;11.026;2023-03-13T08:56:28;94411.44;;;7.72;62.36
39223;BME280;24936;46.328;11.026;2023-03-13T08:58:57;94408.72;;;8.48;60.32
39223;BME280;24936;46.328;11.026;2023-03-13T09:01:24;94408.78;;;8.79;59.55
39223;BME280;24936;46.328;11.026;2023-03-13T09:03:51;94413.66;;;8.63;59.47
39223;BME280;24936;46.328;11.026;2023-03-13T09:06:17;94414.03;;;9.10;58.79
39223;BME280;24936;46.328;11.026;2023-03-13T09:08:43;94405.91;;;9.84;57.58
39223;BME280;24936;46.328;11.026;2023-03-13T09:11:14;94401.22;;;10.17;55.73
39223;BME280;24936;46.328;11.026;2023-03-13T09:13:43;94397.19;;;9.83;55.84
39223;BME280;24936;46.328;11.026;2023-03-13T09:16:11;94400.41;;;10.06;56.74
39223;BME280;24936;46.328;11.026;2023-03-13T09:18:37;94391.44;;;10.96;54.89
39223;BME280;24936;46.328;11.026;2023-03-13T09:21:06;94396.31;;;11.74;52.63
39223;BME280;24936;46.328;11.026;2023-03-13T09:23:32;94407.38;;;11.22;53.34
39223;BME280;24936;46.328;11.026;2023-03-13T09:25:58;94398.72;;;10.64;53.09
39223;BME280;24936;46.328;11.026;2023-03-13T09:28:24;94397.22;;;10.42;54.85
39223;BME280;24936;46.328;11.026;2023-03-13T09:30:50;94403.16;;;10.34;54.86
39223;BME280;24936;46.328;11.026;2023-03-13T09:33:16;94394.16;;;11.04;55.20
39223;BME280;24936;46.328;11.026;2023-03-13T09:35:42;94393.88;;;10.30;55.04
39223;BME280;24936;46.328;11.026;2023-03-13T09:38:11;94398.72;;;10.25;55.27
39223;BME280;24936;46.328;11.026;2023-03-13T09:40:40;94395.16;;;10.06;55.76
39223;BME280;24936;46.328;11.026;2023-03-13T09:43:49;94400.06;;;9.51;56.20
39223;BME280;24936;46.328;11.026;2023-03-13T09:49:30;94376.59;;;9.78;56.82
39223;BME280;24936;46.328;11.026;2023-03-13T09:52:14;94387.41;;;9.25;57.69
39223;BME280;24936;46.328;11.026;2023-03-13T09:54:45;94382.59;;;9.40;56.96
39223;BME280;24936;46.328;11.026;2023-03-13T10:00:35;94379.53;;;9.34;57.02
39223;BME280;24936;46.328;11.026;2023-03-13T10:03:13;94373.50;;;9.44;57.49
39223;BME280;24936;46.328;11.026;2023-03-13T10:05:54;94373.78;;;9.51;57.58
39223;BME280;24936;46.328;11.026;2023-03-13T10:08:23;94355.53;;;9.39;58.00
39223;BME280;24936;46.328;11.026;2023-03-13T10:15:57;94370.59;;;9.47;58.38
39223;BME280;24936;46.328;11.026;2023-03-13T10:18:25;94354.59;;;9.70;56.71
39223;BME280;24936;46.328;11.026;2023-03-13T10:20:53;94351.09;;;9.40;57.33
39223;BME280;24936;46.328;11.026;2023-03-13T10:23:32;94349.69;;;9.36;58.44
39223;BME280;24936;46.328;11.026;2023-03-13T10:26:01;94345.47;;;9.64;58.44
39223;BME280;24936;46.328;11.026;2023-03-13T10:28:26;94343.25;;;9.89;57.34
39223;BME280;24936;46.328;11.026;2023-03-13T10:31:07;94348.22;;;9.72;56.69
39223;BME280;24936;46.328;11.026;2023-03-13T10:33:36;94348.91;;;9.64;57.20
39223;BME280;24936;46.328;11.026;2023-03-13T10:36:12;94352.78;;;9.70;57.20
39223;BME280;24936;46.328;11.026;2023-03-13T10:38:51;94344.09;;;9.79;57.42
39223;BME280;24936;46.328;11.026;2023-03-13T10:41:24;94352.53;;;10.03;56.02
39223;BME280;24936;46.328;11.026;2023-03-13T10:43:53;94341.16;;;10.12;56.04
39223;BME280;24936;46.328;11.026;2023-03-13T10:46:30;94345.56;;;10.21;55.54
39223;BME280;24936;46.328;11.026;2023-03-13T10:48:59;94344.00;;;10.68;56.11
39223;BME280;24936;46.328;11.026;2023-03-13T10:51:34;94339.38;;;10.80;54.57
39223;BME280;24936;46.328;11.026;2023-03-13T10:54:00;94333.72;;;10.75;54.11
39223;BME280;24936;46.328;11.026;2023-03-13T10:56:29;94326.72;;;10.55;54.98
39223;BME280;24936;46.328;11.026;2023-03-13T10:58:54;94333.91;;;10.53;55.68
39223;BME280;24936;46.328;11.026;2023-03-13T11:01:38;94326.34;;;10.78;54.70
39223;BME280;24936;46.328;11.026;2023-03-13T11:04:32;94333.31;;;10.69;55.08
39223;BME280;24936;46.328;11.026;2023-03-13T11:07:04;94324.16;;;10.74;55.56
39223;BME280;24936;46.328;11.026;2023-03-13T11:09:30;94315.78;;;10.88;54.03
39223;BME280;24936;46.328;11.026;2023-03-13T11:12:07;94310.81;;;11.13;54.78
39223;BME280;24936;46.328;11.026;2023-03-13T11:14:35;94304.09;;;11.00;53.75
39223;BME280;24936;46.328;11.026;2023-03-13T11:17:12;94295.13;;;10.55;54.11
39223;BME280;24936;46.328;11.026;2023-03-13T11:19:53;94300.97;;;10.39;54.20
39223;BME280;24936;46.328;11.026;2023-03-13T11:22:31;94297.38;;;10.40;54.94
39223;BME280;24936;46.328;11.026;2023-03-13T11:25:14;94292.97;;;10.79;54.70
39223;BME280;24936;46.328;11.026;2023-03-13T11:38:35;94262.38;;;11.42;52.03
39223;BME280;24936;46.328;11.026;2023-03-13T11:41:10;94259.69;;;11.52;52.85
39223;BME280;24936;46.328;11.026;2023-03-13T11:43:53;94261.47;;;11.33;52.06
39223;BME280;24936;46.328;11.026;2023-03-13T11:49:20;94260.94;;;11.66;51.33
39223;BME280;24936;46.328;11.026;2023-03-13T11:52:15;94251.81;;;11.96;51.24
39223;BME280;24936;46.328;11.026;2023-03-13T11:57:47;94251.25;;;12.98;51.90
39223;BME280;24936;46.328;11.026;2023-03-13T12:05:18;94224.16;;;14.13;44.82
39223;BME280;24936;46.328;11.026;2023-03-13T12:08:00;94215.69;;;15.22;41.12
39223;BME280;24936;46.328;11.026;2023-03-13T12:10:32;94219.66;;;15.73;41.83
39223;BME280;24936;46.328;11.026;2023-03-13T12:13:19;94201.13;;;15.18;40.77
39223;BME280;24936;46.328;11.026;2023-03-13T12:15:53;94205.00;;;14.59;41.98
39223;BME280;24936;46.328;11.026;2023-03-13T12:20:51;94192.31;;;15.96;39.73
39223;BME280;24936;46.328;11.026;2023-03-13T12:23:30;94186.06;;;16.87;37.55
39223;BME280;24936;46.328;11.026;2023-03-13T12:26:13;94180.03;;;16.63;38.48
39223;BME280;24936;46.328;11.026;2023-03-13T12:29:23;94163.03;;;16.94;38.45
39223;BME280;24936;46.328;11.026;2023-03-13T12:31:59;94177.19;;;15.35;42.17
39223;BME280;24936;46.328;11.026;2023-03-13T12:35:00;94169.66;;;16.38;38.56
39223;BME280;24936;46.328;11.026;2023-03-13T12:40:11;94158.59;;;16.34;38.59
39223;BME280;24936;46.328;11.026;2023-03-13T12:45:19;94137.22;;;16.73;38.80
39223;BME280;24936;46.328;11.026;2023-03-13T12:48:17;94132.22;;;16.18;38.52
39223;BME280;24936;46.328;11.026;2023-03-13T12:50:52;94127.47;;;15.75;39.28
39223;BME280;24936;46.328;11.026;2023-03-13T12:56:20;94124.63;;;14.52;41.01
39223;BME280;24936;46.328;11.026;2023-03-13T12:58:52;94122.97;;;14.43;43.39
39223;BME280;24936;46.328;11.026;2023-03-13T13:03:49;94102.84;;;15.05;40.55
39223;BME280;24936;46.328;11.026;2023-03-13T13:06:16;94104.91;;;15.79;40.09
39223;BME280;24936;46.328;11.026;2023-03-13T13:08:43;94104.59;;;16.27;39.71
39223;BME280;24936;46.328;11.026;2023-03-13T13:13:58;94106.06;;;14.12;43.41
39223;BME280;24936;46.328;11.026;2023-03-13T13:16:24;94096.59;;;14.26;43.24
39223;BME280;24936;46.328;11.026;2023-03-13T13:18:51;94095.22;;;14.38;43.60
39223;BME280;24936;46.328;11.026;2023-03-13T13:23:45;94085.19;;;14.26;43.24
39223;BME280;24936;46.328;11.026;2023-03-13T13:31:44;94073.97;;;14.15;44.31
39223;BME280;24936;46.328;11.026;2023-03-13T13:37:00;94076.00;;;13.97;43.71
39223;BME280;24936;46.328;11.026;2023-03-13T13:42:00;94062.75;;;14.45;43.08
39223;BME280;24936;46.328;11.026;2023-03-13T13:44:28;94064.66;;;14.59;44.02
39223;BME280;24936;46.328;11.026;2023-03-13T13:46:55;94065.75;;;15.05;42.13
39223;BME280;24936;46.328;11.026;2023-03-13T13:49:22;94069.44;;;14.32;42.09
39223;BME280;24936;46.328;11.026;2023-03-13T13:57:18;94042.03;;;13.69;45.44
39223;BME280;24936;46.328;11.026;2023-03-13T13:59:59;94051.34;;;13.40;45.69
39223;BME280;24936;46.328;11.026;2023-03-13T14:02:31;94047.03;;;12.89;46.93
39223;BME280;24936;46.328;11.026;2023-03-13T14:05:02;94049.66;;;12.73;47.77
39223;BME280;24936;46.328;11.026;2023-03-13T14:07:53;94054.22;;;12.46;47.82
39223;BME280;24936;46.328;11.026;2023-03-13T14:12:54;94041.59;;;12.06;49.07
39223;BME280;24936;46.328;11.026;2023-03-13T14:17:49;94028.28;;;12.24;48.33
39223;BME280;24936;46.328;11.026;2023-03-13T14:22:59;94031.00;;;12.66;48.44
39223;BME280;24936;46.328;11.026;2023-03-13T14:25:26;94027.38;;;12.59;47.82
39223;BME280;24936;46.328;11.026;2023-03-13T14:27:52;94032.69;;;12.83;46.43
39223;BME280;24936;46.328;11.026;2023-03-13T14:30:19;94033.16;;;12.62;48.33